Time;durP1;ratioP1;P1;durP2;ratioP2;P2;SDS_P1;SDS_P2;PMS_P1;PMS_P2;Temp;Humidity;BMP_temperature;BMP_pressure;BME280_temperature;BME280_humidity;BME280_pressure;Samples;Min_cycle;Max_cycle;Signal;HPM_P1;HPM_P2
2021/07/16 00:02:12;;;;;;;22.70;16.77;;;;;;;22.16;72.81;99841.14;1722727;82;21403;-72
2021/07/16 00:04:39;;;;;;;20.45;17.27;;;;;;;22.14;72.95;99844.45;1709742;83;21308;-71
2021/07/16 00:07:07;;;;;;;23.65;17.10;;;;;;;22.12;73.26;99846.41;1697462;83;21084;-72
2021/07/16 00:09:34;;;;;;;21.60;16.30;;;;;;;22.10;73.57;99845.20;1706350;83;21074;-71
2021/07/16 00:12:02;;;;;;;23.38;18.60;;;;;;;22.07;73.97;99840.63;1698150;83;21817;-72
2021/07/16 00:14:29;;;;;;;19.85;16.80;;;;;;;22.05;73.99;99839.91;1702267;83;21091;-73
2021/07/16 00:16:57;;;;;;;20.37;17.50;;;;;;;22.04;73.88;99838.19;1693640;84;21048;-72
2021/07/16 00:19:25;;;;;;;23.62;17.32;;;;;;;22.00;74.01;99834.45;1693749;84;21107;-71
2021/07/16 00:21:52;;;;;;;19.75;17.25;;;;;;;21.99;74.29;99844.84;1693629;84;21088;-73
2021/07/16 00:24:20;;;;;;;24.43;17.23;;;;;;;21.97;74.68;99846.81;1693601;84;21043;-71
2021/07/16 00:26:46;;;;;;;20.32;16.80;;;;;;;21.95;75.30;99840.73;1693443;84;22012;-71
2021/07/16 00:29:14;;;;;;;22.85;17.75;;;;;;;21.92;75.26;99846.34;1693576;84;21125;-71
2021/07/16 00:31:42;;;;;;;19.60;17.15;;;;;;;21.90;75.31;99848.34;1693183;84;21067;-71
2021/07/16 00:34:09;;;;;;;17.95;16.00;;;;;;;21.89;75.29;99839.92;1693738;84;21138;-70
2021/07/16 00:36:36;;;;;;;22.67;17.25;;;;;;;21.87;74.95;99839.71;1693201;84;21104;-70
2021/07/16 00:39:03;;;;;;;22.50;17.40;;;;;;;21.86;75.31;99840.70;1693699;84;21440;-71
2021/07/16 00:41:30;;;;;;;22.52;16.73;;;;;;;21.84;75.25;99842.17;1693465;84;21093;-71
2021/07/16 00:43:59;;;;;;;24.70;17.25;;;;;;;21.81;75.35;99837.09;1693540;84;21096;-70
2021/07/16 00:46:26;;;;;;;20.45;16.00;;;;;;;21.81;75.42;99841.12;1671255;84;21076;-70
2021/07/16 00:48:54;;;;;;;20.45;16.82;;;;;;;21.77;75.44;99841.87;1693815;84;21111;-72
2021/07/16 00:51:21;;;;;;;19.37;17.15;;;;;;;21.77;75.42;99847.73;1692927;84;21134;-72
2021/07/16 00:53:48;;;;;;;15.78;12.33;;;;;;;21.76;75.13;99846.02;1692753;84;21163;-72
2021/07/16 00:56:15;;;;;;;20.60;16.05;;;;;;;21.76;74.29;99837.97;1694016;84;21099;-72
2021/07/16 00:58:43;;;;;;;19.75;15.13;;;;;;;21.77;74.73;99841.87;1694030;84;21040;-71
2021/07/16 01:01:10;;;;;;;19.62;15.95;;;;;;;21.78;72.40;99836.01;1690386;83;26166;-71
2021/07/16 01:03:37;;;;;;;19.98;16.55;;;;;;;21.78;75.15;99833.33;1699270;83;21186;-68
2021/07/16 01:06:04;;;;;;;15.20;11.48;;;;;;;21.76;74.82;99829.94;1716188;82;21109;-68
2021/07/16 01:08:31;;;;;;;19.90;17.48;;;;;;;21.75;73.37;99825.57;1718335;82;21519;-69
2021/07/16 01:10:59;;;;;;;20.48;16.65;;;;;;;21.76;75.87;99827.25;1709518;82;21633;-69
2021/07/16 01:13:26;;;;;;;16.80;14.85;;;;;;;21.75;74.06;99822.89;1721687;82;21051;-69
2021/07/16 01:15:55;;;;;;;21.57;17.27;;;;;;;21.76;75.20;99823.23;1731784;82;21010;-68
2021/07/16 01:18:24;;;;;;;22.32;15.85;;;;;;;21.76;75.66;99820.55;1731770;82;21193;-68
2021/07/16 01:20:50;;;;;;;23.02;16.57;;;;;;;21.76;73.96;99816.53;1731732;82;22085;-68
2021/07/16 01:23:22;;;;;;;26.00;17.17;;;;;;;21.77;75.99;99816.91;1731821;82;21102;-68
2021/07/16 01:25:49;;;;;;;17.85;15.00;;;;;;;21.76;74.76;99813.85;1731839;82;21043;-68
2021/07/16 01:28:16;;;;;;;23.70;17.37;;;;;;;21.79;75.39;99818.95;1731846;82;21097;-68
2021/07/16 01:30:44;;;;;;;19.30;15.72;;;;;;;21.78;75.48;99809.20;1731704;82;21165;-69
2021/07/16 01:33:13;;;;;;;17.35;12.78;;;;;;;21.78;73.14;99814.56;1731817;82;21506;-68
2021/07/16 01:35:40;;;;;;;18.95;16.32;;;;;;;21.81;75.32;99803.59;1731958;82;21581;-69
2021/07/16 01:38:07;;;;;;;18.07;15.58;;;;;;;21.81;74.65;99806.73;1731568;82;21018;-70
2021/07/16 01:40:37;;;;;;;24.82;17.40;;;;;;;21.84;75.42;99810.51;1731912;82;21098;-70
2021/07/16 01:43:07;;;;;;;21.35;17.52;;;;;;;21.83;75.84;99808.30;1731781;82;21100;-69
2021/07/16 01:45:38;;;;;;;21.50;17.57;;;;;;;21.84;75.33;99805.98;1732058;82;21030;-71
2021/07/16 01:48:09;;;;;;;23.65;18.37;;;;;;;21.84;75.92;99808.67;1731574;82;21536;-72
2021/07/16 01:50:38;;;;;;;19.98;16.25;;;;;;;21.82;76.50;99810.63;1731722;82;21097;-71
2021/07/16 01:53:05;;;;;;;22.05;17.60;;;;;;;21.78;76.87;99807.86;1731619;82;21034;-70
2021/07/16 01:55:33;;;;;;;22.17;17.67;;;;;;;21.76;76.87;99804.47;1731704;82;21142;-70
2021/07/16 01:58:03;;;;;;;14.87;13.28;;;;;;;21.74;76.75;99799.73;1731596;82;21011;-71
2021/07/16 02:00:32;;;;;;;19.77;17.20;;;;;;;21.75;75.19;99792.06;1731700;82;21058;-71
2021/07/16 02:03:03;;;;;;;20.05;16.90;;;;;;;21.74;76.14;99789.02;1731456;82;21544;-71
2021/07/16 02:05:30;;;;;;;22.35;17.75;;;;;;;21.75;75.83;99782.69;1722418;83;21038;-70
2021/07/16 02:08:14;;;;;;;24.05;16.90;;;;;;;21.77;76.10;99782.06;1721989;82;21061;-70
2021/07/16 02:10:42;;;;;;;19.02;15.40;;;;;;;21.79;76.09;99782.77;1722545;83;21011;-71
2021/07/16 02:13:09;;;;;;;19.37;14.68;;;;;;;21.82;75.57;99785.17;1721634;82;21072;-72
2021/07/16 02:15:41;;;;;;;20.02;17.12;;;;;;;21.85;76.08;99780.02;1722046;82;21603;-70
2021/07/16 02:18:08;;;;;;;16.45;13.50;;;;;;;21.87;76.29;99776.22;1722082;82;20994;-71
2021/07/16 02:20:38;;;;;;;20.10;15.78;;;;;;;21.90;75.19;99778.64;1722107;83;21105;-71
2021/07/16 02:23:10;;;;;;;23.70;16.25;;;;;;;21.94;75.83;99780.04;1721828;83;21593;-71
2021/07/16 02:25:37;;;;;;;13.62;11.28;;;;;;;21.98;74.39;99778.78;1710950;81;21072;-71
2021/07/16 02:28:18;;;;;;;16.17;12.88;;;;;;;22.07;74.62;99778.95;1717252;83;21080;-71
2021/07/16 02:30:45;;;;;;;13.15;11.45;;;;;;;22.15;73.76;99781.77;1705373;83;21565;-72
2021/07/16 02:33:13;;;;;;;17.95;12.43;;;;;;;22.27;71.91;99777.14;1704564;83;21135;-72
2021/07/16 02:35:42;;;;;;;18.07;13.32;;;;;;;22.40;72.11;99777.22;1718793;83;21074;-72
2021/07/16 02:38:09;;;;;;;13.80;9.48;;;;;;;22.53;71.35;99769.39;1721368;83;22180;-70
2021/07/16 02:40:36;;;;;;;15.32;11.93;;;;;;;22.66;70.48;99777.13;1721620;83;21022;-71
2021/07/16 02:43:03;;;;;;;18.70;13.55;;;;;;;22.76;70.22;99773.45;1712742;82;21153;-70
2021/07/16 02:45:30;;;;;;;15.75;12.37;;;;;;;22.88;69.97;99782.70;1705975;83;21087;-71
2021/07/16 02:47:57;;;;;;;19.57;13.15;;;;;;;22.98;69.68;99787.53;1705704;82;22155;-69
2021/07/16 02:50:27;;;;;;;18.98;13.50;;;;;;;23.07;69.17;99790.72;1709322;83;21073;-70
2021/07/16 02:52:54;;;;;;;18.27;13.93;;;;;;;23.16;69.35;99793.88;1711634;83;21022;-69
2021/07/16 02:55:21;;;;;;;17.35;12.35;;;;;;;23.21;69.92;99785.38;1711623;83;21133;-70
2021/07/16 02:57:49;;;;;;;15.85;13.35;;;;;;;23.21;69.32;99783.56;1716380;82;21231;-70
2021/07/16 03:00:20;;;;;;;14.73;13.18;;;;;;;23.28;69.58;99782.95;1705627;83;21065;-70
2021/07/16 03:02:49;;;;;;;13.45;10.98;;;;;;;23.33;69.55;99784.70;1707456;83;21040;-70
2021/07/16 03:05:19;;;;;;;13.50;10.80;;;;;;;23.40;67.98;99789.86;1725212;82;21058;-70
2021/07/16 03:07:46;;;;;;;17.12;13.18;;;;;;;23.44;68.86;99789.42;1723017;82;22539;-70
2021/07/16 03:10:24;;;;;;;16.02;12.73;;;;;;;23.51;69.00;99797.70;1720544;82;21062;-69
2021/07/16 03:12:54;;;;;;;22.17;15.38;;;;;;;23.58;68.92;99800.66;1720358;82;21111;-69
2021/07/16 03:15:24;;;;;;;19.15;14.63;;;;;;;23.64;69.92;99804.94;1731797;82;21096;-69
2021/07/16 03:17:51;;;;;;;17.62;14.40;;;;;;;23.65;69.89;99802.62;1729093;82;21078;-68
2021/07/16 03:20:28;;;;;;;17.50;14.50;;;;;;;23.69;70.03;99802.31;1720679;82;21496;-69
2021/07/16 03:22:56;;;;;;;27.07;13.62;;;;;;;23.74;69.75;99808.08;1720540;82;21184;-67
2021/07/16 03:25:23;;;;;;;16.10;11.48;;;;;;;23.80;69.60;99798.11;1720546;82;21821;-68
2021/07/16 03:27:51;;;;;;;21.52;14.15;;;;;;;23.89;69.17;99801.24;1712877;82;21075;-67
2021/07/16 03:30:25;;;;;;;14.55;11.30;;;;;;;24.00;68.87;99808.27;1709814;82;21011;-67
2021/07/16 03:32:51;;;;;;;16.48;13.22;;;;;;;24.12;66.94;99811.59;1734449;82;21043;-69
2021/07/16 03:35:19;;;;;;;22.42;14.07;;;;;;;24.24;68.22;99810.36;1727322;82;21121;-70
2021/07/16 03:37:47;;;;;;;14.70;12.98;;;;;;;24.36;67.04;99810.47;1730602;79;21054;-69
2021/07/16 03:40:17;;;;;;;19.23;13.90;;;;;;;24.49;67.73;99812.31;1727738;82;21057;-70
2021/07/16 03:42:44;;;;;;;18.30;13.47;;;;;;;24.64;67.18;99810.41;1723362;82;21544;-70
2021/07/16 03:45:13;;;;;;;14.53;11.00;;;;;;;24.79;66.17;99807.52;1720742;82;21014;-71
2021/07/16 03:47:46;;;;;;;22.70;12.85;;;;;;;24.96;64.72;99810.33;1710392;82;21810;-71
2021/07/16 03:50:15;;;;;;;21.40;11.70;;;;;;;25.11;64.28;99813.64;1719358;82;21402;-71
2021/07/16 03:52:43;;;;;;;14.33;10.90;;;;;;;25.28;62.90;99813.30;1722422;82;22334;-68
2021/07/16 03:55:12;;;;;;;16.00;11.40;;;;;;;25.45;62.84;99808.83;1724260;82;21077;-68
2021/07/16 03:57:45;;;;;;;;;;;;;;;25.66;61.96;99815.16;1723565;82;21093;-71
2021/07/16 04:00:16;;;;;;;15.30;11.75;;;;;;;25.86;61.10;99821.63;1722352;82;21057;-68
2021/07/16 04:02:44;;;;;;;13.30;10.32;;;;;;;26.04;60.68;99822.40;1727268;82;21062;-72
2021/07/16 04:05:25;;;;;;;12.80;8.90;;;;;;;26.26;59.36;99818.77;1734443;82;21705;-68
2021/07/16 04:08:06;;;;;;;14.40;10.20;;;;;;;26.45;58.76;99825.19;1733579;82;21074;-68
2021/07/16 04:10:35;;;;;;;13.10;8.70;;;;;;;26.68;58.47;99828.11;1725974;82;21128;-67
2021/07/16 04:13:05;;;;;;;10.50;7.30;;;;;;;26.83;55.31;99824.23;1718339;82;21132;-68
2021/07/16 04:15:32;;;;;;;14.78;10.10;;;;;;;27.02;56.17;99827.61;1734657;82;21074;-69
2021/07/16 04:18:01;;;;;;;16.02;8.60;;;;;;;27.20;55.46;99830.98;1730355;82;21552;-68
2021/07/16 04:20:29;;;;;;;13.55;8.93;;;;;;;27.41;54.10;99840.73;1726124;82;21540;-69
2021/07/16 04:22:57;;;;;;;15.08;9.38;;;;;;;27.64;54.51;99837.29;1723246;82;21136;-69
2021/07/16 04:25:24;;;;;;;10.18;7.42;;;;;;;27.89;52.17;99837.23;1730200;82;21058;-68
2021/07/16 04:27:53;;;;;;;14.47;8.90;;;;;;;28.09;52.05;99832.21;1727341;82;21077;-69
2021/07/16 04:30:22;;;;;;;12.53;7.50;;;;;;;28.27;52.09;99827.36;1727464;82;21022;-69
2021/07/16 04:32:50;;;;;;;17.12;9.90;;;;;;;28.38;49.57;99830.19;1702782;82;21092;-68
2021/07/16 04:35:17;;;;;;;12.00;9.48;;;;;;;28.42;51.18;99841.00;1697619;82;21159;-68
2021/07/16 04:37:44;;;;;;;10.82;9.03;;;;;;;28.40;49.93;99832.20;1723570;82;21154;-69
2021/07/16 04:40:15;;;;;;;12.95;9.68;;;;;;;28.39;50.19;99835.91;1717297;82;21109;-68
2021/07/16 04:42:45;;;;;;;14.98;9.43;;;;;;;28.48;50.90;99840.28;1723145;82;21532;-69
2021/07/16 04:45:15;;;;;;;20.30;10.25;;;;;;;28.60;51.35;99836.16;1711264;82;20996;-67
2021/07/16 04:47:42;;;;;;;16.13;9.80;;;;;;;28.74;51.23;99835.04;1726542;82;21054;-67
2021/07/16 04:50:10;;;;;;;18.25;10.35;;;;;;;29.01;50.80;99838.53;1718960;82;21132;-68
2021/07/16 04:52:41;;;;;;;13.08;9.90;;;;;;;29.11;49.45;99808.47;1716271;82;21569;-69
2021/07/16 04:55:10;;;;;;;14.50;10.50;;;;;;;29.41;49.91;99834.27;1722907;82;22247;-69
2021/07/16 04:57:37;;;;;;;18.90;10.78;;;;;;;29.61;48.01;99831.32;1716213;82;21559;-69
2021/07/16 05:00:07;;;;;;;17.92;12.23;;;;;;;29.83;46.92;99828.18;1717594;82;21037;-70
2021/07/16 05:02:34;;;;;;;15.20;11.43;;;;;;;30.05;48.10;99836.40;1722632;83;21800;-68
2021/07/16 05:05:02;;;;;;;15.85;11.20;;;;;;;30.21;45.33;99838.89;1722329;82;21049;-69
2021/07/16 05:07:29;;;;;;;14.05;11.35;;;;;;;30.43;47.06;99834.33;1721393;83;21117;-68
2021/07/16 05:09:56;;;;;;;13.10;10.05;;;;;;;30.67;46.47;99835.84;1714020;82;21564;-68
2021/07/16 05:12:23;;;;;;;14.35;10.38;;;;;;;30.88;45.98;99839.61;1712564;82;21112;-68
2021/07/16 05:14:50;;;;;;;18.12;11.12;;;;;;;31.02;45.99;99842.76;1716134;82;21550;-68
2021/07/16 05:17:18;;;;;;;14.25;9.83;;;;;;;31.12;45.50;99839.69;1725483;82;21124;-68
2021/07/16 05:19:46;;;;;;;13.15;10.95;;;;;;;31.12;45.50;99839.69;1716763;82;21520;-68
2021/07/16 05:22:15;;;;;;;13.20;10.32;;;;;;;31.29;45.61;99838.86;1726090;82;21583;-67
2021/07/16 05:24:42;;;;;;;16.87;10.45;;;;;;;31.41;44.43;99841.39;1720610;82;21116;-68
2021/07/16 05:27:09;;;;;;;19.30;10.65;;;;;;;31.61;45.21;99839.30;1712821;82;21145;-68
2021/07/16 05:29:36;;;;;;;19.77;10.20;;;;;;;31.76;44.60;99842.21;1727059;81;21065;-71
2021/07/16 05:32:07;;;;;;;19.55;11.05;;;;;;;31.88;44.74;99845.20;1732150;82;21038;-71
2021/07/16 05:34:35;;;;;;;14.93;10.10;;;;;;;32.07;44.58;99834.62;1713190;82;21663;-72
2021/07/16 05:37:05;;;;;;;16.93;11.43;;;;;;;32.30;43.37;99835.13;1712950;82;21414;-74
2021/07/16 05:39:32;;;;;;;15.78;10.88;;;;;;;32.51;42.81;99830.56;1726402;82;21138;-72
2021/07/16 05:42:03;;;;;;;14.33;11.95;;;;;;;32.55;43.28;99834.56;1729933;82;21516;-71
2021/07/16 05:44:27;;;;;;;18.67;11.80;;;;;;;32.61;42.73;99822.84;1724794;81;21079;-73
2021/07/16 05:46:55;;;;;;;23.07;12.33;;;;;;;32.70;42.91;99828.41;1719846;82;21130;-72
2021/07/16 05:49:22;;;;;;;18.70;12.20;;;;;;;32.57;43.15;99824.30;1714950;82;21573;-72
2021/07/16 05:51:50;;;;;;;22.48;13.45;;;;;;;32.52;43.17;99828.17;1716186;82;21143;-72
2021/07/16 05:54:17;;;;;;;14.90;12.68;;;;;;;32.48;43.47;99829.59;1713814;82;21636;-72
2021/07/16 05:56:47;;;;;;;23.18;13.80;;;;;;;32.30;43.85;99833.77;1716848;82;21041;-72
2021/07/16 05:59:14;;;;;;;18.98;14.25;;;;;;;32.30;44.59;99840.58;1718048;82;21082;-72
2021/07/16 06:01:41;;;;;;;17.15;13.48;;;;;;;32.27;44.72;99843.70;1713789;82;21142;-73
2021/07/16 06:04:11;;;;;;;15.88;13.62;;;;;;;32.25;44.54;99843.05;1712905;82;21124;-72
2021/07/16 06:06:38;;;;;;;18.37;14.28;;;;;;;32.23;45.77;99845.67;1701384;83;21061;-71
2021/07/16 06:09:06;;;;;;;17.82;13.72;;;;;;;32.18;45.77;99846.28;1713865;83;21037;-71
2021/07/16 06:11:33;;;;;;;23.47;14.30;;;;;;;32.18;46.44;99844.92;1705608;83;21096;-72
2021/07/16 06:14:00;;;;;;;23.02;14.43;;;;;;;32.21;46.95;99849.98;1700718;83;21587;-72
2021/07/16 06:16:27;;;;;;;19.27;14.78;;;;;;;32.30;46.64;99848.75;1718747;83;21156;-72
2021/07/16 06:18:54;;;;;;;20.90;14.95;;;;;;;32.55;46.89;99842.20;1708455;83;21511;-71
2021/07/16 06:21:21;;;;;;;18.82;15.53;;;;;;;32.79;46.22;99843.52;1713929;83;21049;-72
2021/07/16 06:23:48;;;;;;;27.98;16.65;;;;;;;32.96;46.05;99841.73;1720841;82;21066;-70
2021/07/16 06:26:15;;;;;;;31.90;15.65;;;;;;;33.06;45.32;99844.92;1714798;83;21563;-72
2021/07/16 06:28:42;;;;;;;27.20;15.93;;;;;;;32.90;45.07;99835.73;1708552;83;21222;-72
2021/07/16 06:31:09;;;;;;;24.10;16.17;;;;;;;32.78;45.92;99844.57;1718289;83;21084;-71
2021/07/16 06:33:35;;;;;;;18.77;15.60;;;;;;;32.74;46.02;99843.30;1714936;83;21093;-71
2021/07/16 06:36:02;;;;;;;22.27;15.88;;;;;;;32.80;45.48;99842.98;1714518;83;21034;-71
2021/07/16 06:38:29;;;;;;;16.40;13.28;;;;;;;32.88;45.37;99846.88;1702648;83;21548;-73
2021/07/16 06:41:09;;;;;;;23.40;15.38;;;;;;;32.93;44.67;99845.72;1716283;82;21134;-71
2021/07/16 06:43:41;;;;;;;21.45;15.85;;;;;;;33.01;45.35;99841.43;1704748;83;21062;-72
2021/07/16 06:46:10;;;;;;;23.27;15.98;;;;;;;33.18;45.27;99851.41;1709859;82;21230;-72
2021/07/16 06:48:45;;;;;;;20.10;15.78;;;;;;;33.20;44.57;99846.58;1710894;81;21196;-72
2021/07/16 06:51:14;;;;;;;23.02;15.40;;;;;;;33.33;44.89;99851.17;1703111;83;21089;-71
2021/07/16 06:53:41;;;;;;;19.30;14.40;;;;;;;33.57;44.54;99845.59;1719037;82;21198;-72
2021/07/16 06:56:08;;;;;;;21.52;14.53;;;;;;;33.92;43.47;99849.37;1712739;83;21076;-73
2021/07/16 06:58:34;;;;;;;21.48;14.98;;;;;;;34.15;43.40;99853.51;1705752;83;21081;-72
2021/07/16 07:01:01;;;;;;;22.20;16.10;;;;;;;34.31;41.92;99846.16;1709268;83;21587;-72
2021/07/16 07:03:27;;;;;;;19.27;15.18;;;;;;;34.57;41.54;99856.63;1659168;86;21060;-71
2021/07/16 07:05:56;;;;;;;20.70;14.40;;;;;;;34.66;41.17;99852.06;1654573;86;21170;-72
2021/07/16 07:08:23;;;;;;;21.25;16.05;;;;;;;34.62;40.80;99845.89;1674458;85;21105;-72
2021/07/16 07:10:49;;;;;;;22.90;16.02;;;;;;;34.61;41.41;99844.22;1671979;85;21118;-72
2021/07/16 07:13:17;;;;;;;18.77;14.15;;;;;;;34.56;41.94;99846.76;1678443;85;21592;-72
2021/07/16 07:15:44;;;;;;;15.08;13.22;;;;;;;34.52;41.47;99848.25;1676002;85;21018;-71
2021/07/16 07:20:10;;;;;;;18.70;12.68;;;;;;;34.60;40.23;99839.77;1803670;79;22598;-72
2021/07/16 07:22:36;;;;;;;16.93;13.50;;;;;;;34.71;40.48;99840.45;1768755;80;21582;-72
2021/07/16 07:25:07;;;;;;;18.10;12.50;;;;;;;34.80;39.98;99847.33;1772019;80;20993;-72
2021/07/16 07:27:35;;;;;;;19.67;13.65;;;;;;;34.94;39.73;99844.48;1774081;80;21500;-73
2021/07/16 07:30:02;;;;;;;16.30;12.03;;;;;;;35.00;39.44;99839.50;1768541;80;21021;-72
2021/07/16 07:32:28;;;;;;;18.87;13.25;;;;;;;35.20;38.92;99841.56;1767261;80;21031;-73
2021/07/16 07:34:57;;;;;;;19.02;13.65;;;;;;;35.25;40.06;99843.08;1769274;80;21276;-72
2021/07/16 07:37:23;;;;;;;18.60;13.08;;;;;;;35.17;39.63;99846.09;1769266;80;21541;-72
2021/07/16 07:39:50;;;;;;;19.60;13.88;;;;;;;35.23;39.56;99852.05;1771213;80;21122;-72
2021/07/16 07:42:21;;;;;;;21.73;13.18;;;;;;;35.44;39.54;99860.91;1764778;80;21124;-73
2021/07/16 07:44:46;;;;;;;15.98;13.13;;;;;;;35.78;38.63;99851.83;1759993;80;21030;-73
2021/07/16 07:47:13;;;;;;;17.42;12.10;;;;;;;36.13;38.96;99850.67;1777386;80;21049;-72
2021/07/16 07:49:40;;;;;;;16.95;11.97;;;;;;;36.38;36.63;99846.42;1780255;80;21415;-73
2021/07/16 07:52:07;;;;;;;15.00;10.38;;;;;;;36.31;36.68;99851.17;1751469;80;21056;-72
2021/07/16 07:54:34;;;;;;;17.75;10.72;;;;;;;36.62;36.04;99860.23;1750184;80;21531;-73
2021/07/16 07:57:01;;;;;;;10.65;9.43;;;;;;;37.05;34.55;99853.64;1763337;79;21100;-73
2021/07/16 07:59:27;;;;;;;12.28;10.15;;;;;;;37.41;33.41;99860.84;1767058;80;21076;-73
2021/07/16 08:01:54;;;;;;;11.43;9.05;;;;;;;37.75;32.86;99853.63;1751314;79;21548;-73
2021/07/16 08:04:22;;;;;;;12.30;9.78;;;;;;;38.11;32.03;99848.91;1764929;79;21092;-72
2021/07/16 08:06:51;;;;;;;12.90;10.08;;;;;;;38.32;31.87;99850.67;1774778;80;21119;-71
2021/07/16 08:09:19;;;;;;;14.78;10.38;;;;;;;38.04;32.40;99856.47;1751027;80;21112;-71
2021/07/16 08:11:47;;;;;;;19.73;10.78;;;;;;;37.47;33.33;99849.42;1773368;80;21096;-72
2021/07/16 08:14:14;;;;;;;23.85;11.25;;;;;;;36.81;34.75;99846.75;1766839;79;21184;-72
2021/07/16 08:16:46;;;;;;;17.98;11.80;;;;;;;36.36;35.62;99848.56;1750813;81;21069;-73
2021/07/16 08:19:12;;;;;;;13.98;10.28;;;;;;;36.16;36.37;99861.70;1769417;79;21026;-72
2021/07/16 08:21:40;;;;;;;16.62;11.10;;;;;;;36.06;36.81;99856.20;1760976;81;21271;-71
2021/07/16 08:24:08;;;;;;;20.12;11.33;;;;;;;36.00;36.64;99853.00;1745877;81;21150;-72
2021/07/16 08:26:35;;;;;;;14.75;10.78;;;;;;;35.89;36.76;99856.52;1766106;81;21201;-73
2021/07/16 08:29:02;;;;;;;18.87;10.43;;;;;;;35.83;35.71;99851.97;1745697;79;21037;-72
2021/07/16 08:31:29;;;;;;;20.95;11.80;;;;;;;35.75;36.59;99856.37;1753162;79;21062;-71
2021/07/16 08:33:55;;;;;;;16.82;9.28;;;;;;;35.95;36.44;99852.87;1760116;79;21581;-71
2021/07/16 08:36:22;;;;;;;13.30;10.18;;;;;;;36.23;34.20;99848.73;1755070;79;21100;-73
2021/07/16 08:38:49;;;;;;;14.43;9.48;;;;;;;36.73;35.57;99849.28;1744712;79;21540;-72
2021/07/16 08:41:18;;;;;;;14.73;9.40;;;;;;;37.08;34.02;99847.16;1754458;79;21053;-71
2021/07/16 08:43:44;;;;;;;16.65;9.70;;;;;;;37.35;32.72;99848.89;1739401;81;21037;-73
2021/07/16 08:46:12;;;;;;;15.13;9.98;;;;;;;37.37;33.00;99848.66;1695363;84;21106;-72
2021/07/16 08:48:40;;;;;;;13.93;9.68;;;;;;;36.99;33.05;99851.83;1756458;79;21591;-72
2021/07/16 08:51:11;;;;;;;16.48;10.00;;;;;;;36.77;33.85;99855.15;1753956;79;21105;-73
2021/07/16 08:53:38;;;;;;;13.30;9.18;;;;;;;36.83;33.76;99854.19;1747132;79;20979;-73
2021/07/16 08:56:05;;;;;;;13.03;8.50;;;;;;;36.89;33.81;99850.51;1751306;79;21065;-73
2021/07/16 08:58:33;;;;;;;17.65;9.33;;;;;;;36.96;34.22;99856.72;1747218;79;21085;-74
2021/07/16 09:00:59;;;;;;;17.37;9.75;;;;;;;36.93;33.30;99854.45;1746289;79;21089;-73
2021/07/16 09:03:28;;;;;;;14.20;9.08;;;;;;;36.83;33.56;99851.44;1749617;79;21460;-72
2021/07/16 09:05:55;;;;;;;12.28;8.50;;;;;;;36.95;33.58;99849.57;1742840;79;21097;-74
2021/07/16 09:08:22;;;;;;;11.28;8.95;;;;;;;37.08;32.52;99850.44;1736711;81;21101;-72
2021/07/16 09:10:59;;;;;;;14.40;9.83;;;;;;;37.21;33.10;99852.95;1762697;81;21116;-73
2021/07/16 09:13:29;;;;;;;14.68;8.20;;;;;;;37.34;32.86;99855.47;1753750;79;21058;-71
2021/07/16 09:16:01;;;;;;;14.03;9.00;;;;;;;37.29;32.35;99847.63;1745337;81;21145;-73
2021/07/16 09:18:38;;;;;;;11.90;8.25;;;;;;;36.92;33.41;99847.28;1745856;81;21057;-72
2021/07/16 09:21:07;;;;;;;13.75;8.23;;;;;;;36.46;33.35;99851.56;1759314;81;21094;-74
2021/07/16 09:23:41;;;;;;;13.78;7.95;;;;;;;36.09;33.85;99852.99;1774466;80;21027;-72
2021/07/16 09:26:15;;;;;;;9.43;7.40;;;;;;;36.03;34.48;99848.97;1685366;84;21203;-73
2021/07/16 09:28:47;;;;;;;12.70;8.13;;;;;;;36.13;32.43;99847.39;1759981;81;21104;-72
2021/07/16 09:31:23;;;;;;;9.43;8.48;;;;;;;36.41;34.08;99843.20;1735887;82;21112;-77
2021/07/16 09:33:56;;;;;;;10.38;8.20;;;;;;;36.88;33.03;99843.36;1752173;81;21068;-75
2021/07/16 09:36:32;;;;;;;12.40;8.58;;;;;;;37.09;31.86;99839.78;1745910;81;21078;-73
2021/07/16 09:39:16;;;;;;;12.40;8.65;;;;;;;37.18;32.39;99842.46;1759488;79;21615;-71
2021/07/16 09:41:55;;;;;;;13.30;8.25;;;;;;;37.12;32.67;99835.17;1736455;79;21112;-71
2021/07/16 09:44:45;;;;;;;18.77;8.48;;;;;;;37.31;31.40;99836.70;1753399;79;21236;-70
2021/07/16 09:47:18;;;;;;;14.50;7.80;;;;;;;37.50;31.44;99835.19;1757258;81;21605;-71
2021/07/16 09:49:49;;;;;;;13.45;7.87;;;;;;;37.58;31.10;99838.98;1761590;81;21557;-72
2021/07/16 09:52:19;;;;;;;8.95;7.40;;;;;;;37.38;30.16;99834.66;1735882;81;21065;-71
2021/07/16 09:55:18;;;;;;;17.02;8.45;;;;;;;37.30;31.64;99830.93;1742308;81;21108;-70
2021/07/16 09:57:46;;;;;;;13.53;7.95;;;;;;;37.26;31.42;99835.22;1753096;79;21121;-73
2021/07/16 10:00:24;;;;;;;11.80;7.30;;;;;;;37.21;31.48;99835.11;1760862;81;21109;-73
2021/07/16 10:02:54;;;;;;;15.05;7.60;;;;;;;37.18;31.99;99830.11;1758339;81;21033;-73
2021/07/16 10:05:21;;;;;;;14.20;7.58;;;;;;;37.24;30.35;99831.05;1765705;81;21050;-72
2021/07/16 10:07:48;;;;;;;14.05;8.68;;;;;;;37.35;31.00;99829.66;1761387;81;21218;-73
2021/07/16 10:10:22;;;;;;;10.13;7.12;;;;;;;37.41;31.10;99836.13;1748360;79;21509;-73
2021/07/16 10:12:51;;;;;;;11.73;7.28;;;;;;;37.43;29.26;99833.12;1747304;81;21622;-73
2021/07/16 10:15:24;;;;;;;11.83;7.65;;;;;;;37.50;30.41;99826.95;1765594;80;21069;-75
2021/07/16 10:17:49;;;;;;;12.60;6.95;;;;;;;37.44;30.40;99832.06;1764594;81;22149;-74
2021/07/16 10:20:18;;;;;;;13.53;8.05;;;;;;;37.45;29.96;99826.84;1766395;80;21462;-76
2021/07/16 10:22:47;;;;;;;11.68;7.35;;;;;;;37.71;30.87;99824.99;1767424;81;21006;-75
2021/07/16 10:25:19;;;;;;;11.08;7.20;;;;;;;37.94;28.91;99820.48;1768540;80;21100;-74
2021/07/16 10:27:46;;;;;;;9.35;7.33;;;;;;;38.08;28.84;99823.30;1767914;81;21658;-73
2021/07/16 10:30:17;;;;;;;15.83;7.28;;;;;;;38.15;29.32;99826.72;1767630;81;21053;-75
2021/07/16 10:32:47;;;;;;;9.83;8.78;;;;;;;38.44;28.33;99815.69;1755497;81;21087;-74
2021/07/16 10:35:29;;;;;;;13.05;8.13;;;;;;;38.68;28.15;99815.59;1743430;81;21018;-76
2021/07/16 10:38:00;;;;;;;11.40;7.12;;;;;;;38.77;28.05;99817.67;1737745;81;21070;-74
2021/07/16 10:40:43;;;;;;;8.75;6.53;;;;;;;38.57;27.84;99811.28;1761251;79;21528;-74
2021/07/16 10:43:29;;;;;;;11.25;6.33;;;;;;;38.42;27.85;99805.47;1723925;81;21590;-74
2021/07/16 10:45:59;;;;;;;10.20;5.12;;;;;;;38.49;25.81;99808.95;1739132;81;21133;-76
2021/07/16 10:48:31;;;;;;;8.90;5.10;;;;;;;38.72;24.55;99802.98;1747158;81;21085;-76
2021/07/16 10:50:56;;;;;;;10.40;5.37;;;;;;;39.03;23.69;99797.45;1745447;81;21671;-73
2021/07/16 10:53:35;;;;;;;7.95;5.60;;;;;;;39.33;23.11;99798.44;1752306;81;21105;-74
2021/07/16 10:56:08;;;;;;;10.98;5.70;;;;;;;39.48;23.50;99799.23;1761806;80;21097;-73
2021/07/16 10:58:43;;;;;;;7.58;5.30;;;;;;;39.48;23.61;99797.86;1762145;81;21580;-73
2021/07/16 11:01:10;;;;;;;9.43;5.83;;;;;;;39.42;23.48;99794.73;1747585;81;21097;-73
2021/07/16 11:03:42;;;;;;;8.65;4.80;;;;;;;39.54;23.55;99793.23;1762350;81;21054;-72
2021/07/16 11:06:11;;;;;;;7.10;4.83;;;;;;;39.73;23.69;99789.05;1748749;81;21054;-74
2021/07/16 11:08:48;;;;;;;10.25;5.12;;;;;;;39.84;21.94;99781.77;1737608;82;21541;-75
2021/07/16 11:11:19;;;;;;;11.25;4.87;;;;;;;40.12;23.45;99779.31;1741321;81;22005;-74
2021/07/16 11:14:00;;;;;;;6.50;4.80;;;;;;;40.43;23.00;99782.41;1759807;81;21042;-74
2021/07/16 11:16:32;;;;;;;;;;;;;;;40.66;21.68;99776.53;1742485;81;21093;-74
2021/07/16 11:19:10;;;;;;;11.08;5.05;;;;;;;40.78;22.82;99771.40;1737404;82;20202;-75
2021/07/16 11:21:49;;;;;;;10.98;5.95;;;;;;;40.85;22.10;99776.14;1766761;81;22241;-74
2021/07/16 11:24:22;;;;;;;10.13;5.60;;;;;;;41.01;22.17;99775.14;1755961;81;21084;-73
2021/07/16 11:27:07;;;;;;;9.08;4.75;;;;;;;41.14;22.55;99770.27;1737389;82;21604;-74
2021/07/16 11:29:43;;;;;;;8.10;5.40;;;;;;;41.00;22.21;99775.39;1737530;82;21659;-72
2021/07/16 11:32:24;;;;;;;8.15;4.95;;;;;;;40.66;22.10;99773.77;1736595;82;21014;-73
2021/07/16 11:34:58;;;;;;;6.97;4.40;;;;;;;40.38;22.57;99772.16;1753188;81;21018;-73